createdAt,value
2023-05-03T00:00:01.007Z,84.4
2023-05-03T00:01:00.725Z,84.4
2023-05-03T00:02:00.714Z,84.7
2023-05-03T00:03:00.760Z,84.7
2023-05-03T00:04:00.620Z,84.4
2023-05-03T00:05:00.654Z,84.4
2023-05-03T00:06:00.597Z,84.7
2023-05-03T00:07:00.551Z,84.4
2023-05-03T00:08:00.504Z,84.4
2023-05-03T00:09:00.474Z,84.4
2023-05-03T00:10:00.916Z,84.4
2023-05-03T00:11:00.481Z,84.7
2023-05-03T00:12:00.459Z,84.8
2023-05-03T00:13:00.471Z,84.7
2023-05-03T00:14:00.462Z,84.7
2023-05-03T00:15:00.468Z,84.7
2023-05-03T00:16:00.466Z,84.7
2023-05-03T00:17:00.580Z,84.7
2023-05-03T00:18:00.490Z,84.7
2023-05-03T00:19:00.487Z,84.7
2023-05-03T00:20:00.735Z,85.1
2023-05-03T00:21:00.475Z,84.7
2023-05-03T00:22:00.472Z,85
2023-05-03T00:23:00.490Z,84.7
2023-05-03T00:24:00.467Z,84.7
2023-05-03T00:25:00.468Z,84.7
2023-05-03T00:26:00.485Z,84.7
2023-05-03T00:27:00.471Z,84.7
2023-05-03T00:28:00.493Z,84.7
2023-05-03T00:29:00.481Z,84.7
2023-05-03T00:30:00.973Z,84.7
2023-05-03T00:31:00.532Z,84.7
2023-05-03T00:32:00.535Z,84.7
2023-05-03T00:33:00.571Z,84.7
2023-05-03T00:34:00.489Z,84.7
2023-05-03T00:35:00.492Z,84.7
2023-05-03T00:36:00.485Z,84.7
2023-05-03T00:37:00.490Z,84.7
2023-05-03T00:38:00.484Z,84.7
2023-05-03T00:39:00.507Z,84.7
2023-05-03T00:40:00.742Z,84.7
2023-05-03T00:41:00.489Z,84.7
2023-05-03T00:42:00.510Z,84.7
2023-05-03T00:43:00.537Z,84.7
2023-05-03T00:44:00.506Z,85
2023-05-03T00:45:00.511Z,84.7
2023-05-03T00:46:12.313Z,84.7
2023-05-03T00:47:00.524Z,84.7
2023-05-03T00:48:00.562Z,84.7
2023-05-03T00:49:00.521Z,84.7
2023-05-03T00:50:00.844Z,84.7
2023-05-03T00:51:00.500Z,84.7
2023-05-03T00:52:00.509Z,84.7
2023-05-03T00:53:00.503Z,84.7
2023-05-03T00:54:00.507Z,84.7
2023-05-03T00:55:00.521Z,84.7
2023-05-03T00:56:00.519Z,84.7
2023-05-03T00:57:00.508Z,84.7
2023-05-03T00:58:00.519Z,85
2023-05-03T00:59:00.520Z,84.7
2023-05-03T01:00:00.883Z,85
2023-05-03T01:01:00.507Z,84.7
2023-05-03T01:02:00.638Z,84.7
2023-05-03T01:03:00.578Z,84.7
2023-05-03T01:04:00.737Z,85
2023-05-03T01:05:00.520Z,84.7
2023-05-03T01:06:00.529Z,85
2023-05-03T01:07:00.519Z,84.7
2023-05-03T01:08:00.536Z,85
2023-05-03T01:09:00.520Z,85
2023-05-03T01:10:00.803Z,85
2023-05-03T01:11:00.523Z,85
2023-05-03T01:12:00.522Z,85
2023-05-03T01:13:00.535Z,85
2023-05-03T01:14:00.532Z,85
2023-05-03T01:15:00.523Z,85
2023-05-03T01:16:00.599Z,85.3
2023-05-03T01:17:00.523Z,85
2023-05-03T01:18:00.578Z,85.3
2023-05-03T01:19:00.526Z,85.3
2023-05-03T01:20:00.967Z,85.3
2023-05-03T01:21:00.535Z,85.3
2023-05-03T01:22:00.527Z,85.3
2023-05-03T01:23:00.536Z,85.3
2023-05-03T01:24:00.555Z,85.3
2023-05-03T01:25:00.541Z,85.3
2023-05-03T01:26:00.554Z,85.3
2023-05-03T01:27:00.540Z,85.3
2023-05-03T01:28:00.548Z,85.3
2023-05-03T01:29:00.554Z,85.3
2023-05-03T01:30:01.063Z,85.3
2023-05-03T01:31:00.550Z,85.3
2023-05-03T01:32:00.568Z,85.3
2023-05-03T01:33:00.559Z,85.3
2023-05-03T01:34:00.541Z,85.3
2023-05-03T01:35:00.546Z,85.3
2023-05-03T01:36:00.553Z,85.3
2023-05-03T01:37:00.545Z,85.3
2023-05-03T01:38:00.566Z,85.3
2023-05-03T01:39:00.593Z,85.3
2023-05-03T01:40:00.885Z,85.3
2023-05-03T01:41:00.549Z,85.3
2023-05-03T01:42:00.579Z,85.3
2023-05-03T01:43:00.564Z,85.3
2023-05-03T01:44:00.557Z,85.3
2023-05-03T01:45:00.566Z,85.3
2023-05-03T01:46:00.597Z,85.3
2023-05-03T01:47:00.579Z,85.3
2023-05-03T01:48:00.641Z,85.3
2023-05-03T01:49:00.556Z,85.3
2023-05-03T01:50:00.993Z,85.3
2023-05-03T01:51:00.562Z,85.3
2023-05-03T01:52:00.583Z,85.3
2023-05-03T01:53:00.568Z,85.3
2023-05-03T01:54:00.571Z,85.3
2023-05-03T01:55:00.597Z,85.3
2023-05-03T01:56:00.593Z,85.3
2023-05-03T01:57:00.578Z,85.3
2023-05-03T01:58:00.573Z,85.3
2023-05-03T01:59:00.591Z,85.3
2023-05-03T02:00:00.767Z,85.3
2023-05-03T02:01:01.422Z,85.3
2023-05-03T02:02:01.403Z,85.3
2023-05-03T02:03:01.457Z,85.3
2023-05-03T02:04:01.407Z,85.3
2023-05-03T02:05:01.430Z,85
2023-05-03T02:06:01.425Z,85.3
2023-05-03T02:07:01.393Z,85
2023-05-03T02:08:01.393Z,85.3
2023-05-03T02:09:01.389Z,85.3
2023-05-03T02:10:01.807Z,85.3
2023-05-03T02:11:01.431Z,85.3
2023-05-03T02:12:01.396Z,85.3
2023-05-03T02:13:01.401Z,85.3
2023-05-03T02:14:01.412Z,85.3
2023-05-03T02:15:01.396Z,85.3
2023-05-03T02:16:01.404Z,85.3
2023-05-03T02:17:01.510Z,85.3
2023-05-03T02:18:01.492Z,85.3
2023-05-03T02:19:01.397Z,85.3
2023-05-03T02:20:01.707Z,85.3
2023-05-03T02:21:01.424Z,85.3
2023-05-03T02:22:01.398Z,85.3
2023-05-03T02:23:01.416Z,85.3
2023-05-03T02:24:01.407Z,85.6
2023-05-03T02:25:01.426Z,85.6
2023-05-03T02:26:01.508Z,85.6
2023-05-03T02:27:01.467Z,85.6
2023-05-03T02:28:01.495Z,85.6
2023-05-03T02:29:01.409Z,85.6
2023-05-03T02:30:02.154Z,85.6
2023-05-03T02:31:01.524Z,85.6
2023-05-03T02:32:01.415Z,85.3
2023-05-03T02:33:01.528Z,85.3
2023-05-03T02:34:01.420Z,85.3
2023-05-03T02:35:01.470Z,85.3
2023-05-03T02:36:01.435Z,85.3
2023-05-03T02:37:01.513Z,85.6
2023-05-03T02:38:01.478Z,85.6
2023-05-03T02:39:01.489Z,85.6
2023-05-03T02:40:02.029Z,85.6
2023-05-03T02:41:01.544Z,85.3
2023-05-03T02:42:01.545Z,85.6
2023-05-03T02:43:01.501Z,85.9
2023-05-03T02:44:01.535Z,85.6
2023-05-03T02:45:01.565Z,85.6
2023-05-03T02:46:01.620Z,85.9
2023-05-03T02:47:01.551Z,85.9
2023-05-03T02:48:01.640Z,85.9
2023-05-03T02:49:01.634Z,85.9
2023-05-03T02:50:02.153Z,85.6
2023-05-03T02:51:01.619Z,85.9
2023-05-03T02:52:01.558Z,85.9
2023-05-03T02:53:01.536Z,85.9
2023-05-03T02:54:01.564Z,85.9
2023-05-03T02:55:01.597Z,85.9
2023-05-03T02:56:01.610Z,85.9
2023-05-03T02:57:01.631Z,86.2
2023-05-03T02:58:01.942Z,86.2
2023-05-03T02:59:01.436Z,86.5
2023-05-03T03:00:01.780Z,86.5
2023-05-03T03:01:01.451Z,86.5
2023-05-03T03:02:01.571Z,86.5
2023-05-03T03:03:01.559Z,86.5
2023-05-03T03:04:01.541Z,86.5
2023-05-03T03:05:01.508Z,86.5
2023-05-03T03:06:01.518Z,86.5
2023-05-03T03:07:01.442Z,86.5
2023-05-03T03:08:01.450Z,86.8
2023-05-03T03:09:01.448Z,86.8
2023-05-03T03:10:01.651Z,86.8
2023-05-03T03:11:01.450Z,86.8
2023-05-03T03:12:01.459Z,86.8
2023-05-03T03:13:01.452Z,86.8
2023-05-03T03:14:01.462Z,86.8
2023-05-03T03:15:01.467Z,86.5
2023-05-03T03:16:01.500Z,86.8
2023-05-03T03:17:01.460Z,86.5
2023-05-03T03:18:01.489Z,86.8
2023-05-03T03:19:01.466Z,86.8
2023-05-03T03:20:01.682Z,86.5
2023-05-03T03:21:01.454Z,87.1
2023-05-03T03:22:01.460Z,87.1
2023-05-03T03:23:01.473Z,87.1
2023-05-03T03:24:01.458Z,87.1
2023-05-03T03:25:01.515Z,87.1
2023-05-03T03:26:01.467Z,87.1
2023-05-03T03:27:01.470Z,87.1
2023-05-03T03:28:01.470Z,87.1
2023-05-03T03:29:01.478Z,87.1
2023-05-03T03:30:01.932Z,87.1
2023-05-03T03:31:01.525Z,87.1
2023-05-03T03:32:01.495Z,87.1
2023-05-03T03:33:01.515Z,87.1
2023-05-03T03:34:01.494Z,87.1
2023-05-03T03:35:01.517Z,87.1
2023-05-03T03:36:01.486Z,87.1
2023-05-03T03:37:01.541Z,87.1
2023-05-03T03:38:01.498Z,87.1
2023-05-03T03:39:01.505Z,87.1
2023-05-03T03:40:01.696Z,87.1
2023-05-03T03:41:01.499Z,87.1
2023-05-03T03:42:01.518Z,87.1
2023-05-03T03:43:01.507Z,87.1
2023-05-03T03:44:01.502Z,87.1
2023-05-03T03:45:01.529Z,87.1
2023-05-03T03:46:01.500Z,87.1
2023-05-03T03:47:01.549Z,87.1
2023-05-03T03:48:01.552Z,87.1
2023-05-03T03:49:01.528Z,87.1
2023-05-03T03:50:01.850Z,87.1
2023-05-03T03:51:01.539Z,87.1
2023-05-03T03:52:01.520Z,87.1
2023-05-03T03:53:01.506Z,87.1
2023-05-03T03:54:01.519Z,87.1
2023-05-03T03:55:01.598Z,87.1
2023-05-03T03:56:01.514Z,87.1
2023-05-03T03:57:01.521Z,87.1
2023-05-03T03:58:01.549Z,87.1
2023-05-03T03:59:01.525Z,87.1
2023-05-03T04:00:01.975Z,87.1
2023-05-03T04:01:01.560Z,87.1
2023-05-03T04:02:01.584Z,87.1
2023-05-03T04:03:01.636Z,87.1
2023-05-03T04:04:01.636Z,87.4
2023-05-03T04:05:01.529Z,87.4
2023-05-03T04:06:01.621Z,87.1
2023-05-03T04:07:01.531Z,87.7
2023-05-03T04:08:01.524Z,87.7
2023-05-03T04:09:01.533Z,87.7
2023-05-03T04:10:01.885Z,87.7
2023-05-03T04:11:01.559Z,87.4
2023-05-03T04:12:01.541Z,87.7
2023-05-03T04:13:01.542Z,87.7
2023-05-03T04:14:01.527Z,87.7
2023-05-03T04:15:01.627Z,87.7
2023-05-03T04:16:02.654Z,87.7
2023-05-03T04:17:01.769Z,87.7
2023-05-03T04:18:01.560Z,87.4
2023-05-03T04:19:01.534Z,87.7
2023-05-03T04:20:01.754Z,87.7
2023-05-03T04:21:01.531Z,87.7
2023-05-03T04:22:01.542Z,87.7
2023-05-03T04:23:01.540Z,87.7
2023-05-03T04:24:01.542Z,87.7
2023-05-03T04:25:01.555Z,87.7
2023-05-03T04:26:02.599Z,87.7
2023-05-03T04:27:01.544Z,88
2023-05-03T04:28:01.531Z,88
2023-05-03T04:29:01.537Z,88.3
2023-05-03T04:30:01.905Z,88.3
2023-05-03T04:31:01.572Z,88.3
2023-05-03T04:32:01.567Z,88.3
2023-05-03T04:33:01.581Z,88
2023-05-03T04:34:01.551Z,88.3
2023-05-03T04:35:01.594Z,88.3
2023-05-03T04:36:01.543Z,88.3
2023-05-03T04:37:01.583Z,88.7
2023-05-03T04:38:01.585Z,89
2023-05-03T04:39:01.560Z,89
2023-05-03T04:40:01.836Z,89
2023-05-03T04:41:01.552Z,89
2023-05-03T04:42:01.554Z,89
2023-05-03T04:43:01.563Z,89
2023-05-03T04:44:01.551Z,89
2023-05-03T04:45:01.581Z,89
2023-05-03T04:46:01.588Z,89
2023-05-03T04:47:01.562Z,89.4
2023-05-03T04:48:01.645Z,89.4
2023-05-03T04:49:01.561Z,89.4
2023-05-03T04:50:01.918Z,89.1
2023-05-03T04:51:01.609Z,89.1
2023-05-03T04:52:01.852Z,89.1
2023-05-03T04:53:01.606Z,89.1
2023-05-03T04:54:01.574Z,89.1
2023-05-03T04:55:01.569Z,89.1
2023-05-03T04:56:01.578Z,89.1
2023-05-03T04:57:01.572Z,89.1
2023-05-03T04:58:01.599Z,89.1
2023-05-03T04:59:01.573Z,89.1
2023-05-03T05:00:02.010Z,89.1
2023-05-03T05:01:01.582Z,88.8
2023-05-03T05:02:01.798Z,88.8
2023-05-03T05:03:01.799Z,88.8
2023-05-03T05:04:01.697Z,88.9
2023-05-03T05:05:01.614Z,89.1
2023-05-03T05:06:01.628Z,89.2
2023-05-03T05:07:01.584Z,88.9
2023-05-03T05:08:01.587Z,88.5
2023-05-03T05:09:01.569Z,88.8
2023-05-03T05:10:01.876Z,89.2
2023-05-03T05:11:01.597Z,88.9
2023-05-03T05:12:01.592Z,88.6
2023-05-03T05:13:01.576Z,88.5
2023-05-03T05:14:01.575Z,88.9
2023-05-03T05:15:01.595Z,88.6
2023-05-03T05:16:01.584Z,88.6
2023-05-03T05:17:01.674Z,88.6
2023-05-03T05:18:01.642Z,88.6
2023-05-03T05:19:01.584Z,88.6
2023-05-03T05:20:01.991Z,88.6
2023-05-03T05:21:01.601Z,88.6
2023-05-03T05:22:01.590Z,88.6
2023-05-03T05:23:01.583Z,88.3
2023-05-03T05:24:01.598Z,88.3
2023-05-03T05:25:01.585Z,88
2023-05-03T05:26:01.599Z,88
2023-05-03T05:27:01.589Z,88
2023-05-03T05:28:01.598Z,88
2023-05-03T05:29:01.659Z,88
2023-05-03T05:30:01.880Z,87.7
2023-05-03T05:31:01.650Z,87.7
2023-05-03T05:32:01.745Z,87.7
2023-05-03T05:33:01.665Z,87.5
2023-05-03T05:34:01.601Z,87.4
2023-05-03T05:35:01.625Z,87.1
2023-05-03T05:36:01.621Z,87.1
2023-05-03T05:37:01.598Z,86.8
2023-05-03T05:38:01.591Z,86.8
2023-05-03T05:39:01.596Z,86.9
2023-05-03T05:40:01.848Z,86.5
2023-05-03T05:41:01.649Z,86.2
2023-05-03T05:42:01.639Z,86.2
2023-05-03T05:43:01.619Z,85.6
2023-05-03T05:44:01.613Z,85.6
2023-05-03T05:45:01.625Z,86.3
2023-05-03T05:46:01.618Z,86.2
2023-05-03T05:47:01.950Z,85.7
2023-05-03T05:48:01.687Z,85.6
2023-05-03T05:49:01.642Z,86
2023-05-03T05:50:01.932Z,86
2023-05-03T05:51:01.619Z,85.7
2023-05-03T05:52:01.619Z,86
2023-05-03T05:53:01.617Z,85.7
2023-05-03T05:54:01.651Z,85.7
2023-05-03T05:55:01.636Z,85.4
2023-05-03T05:56:01.633Z,85
2023-05-03T05:57:01.641Z,85.7
2023-05-03T05:58:01.632Z,85.7
2023-05-03T05:59:00.530Z,85.4
2023-05-03T06:00:00.906Z,85.7
2023-05-03T06:01:00.569Z,85.1
2023-05-03T06:02:00.603Z,85.1
2023-05-03T06:03:00.572Z,85.1
2023-05-03T06:04:00.535Z,85.1
2023-05-03T06:05:00.646Z,85.1
2023-05-03T06:06:00.555Z,85.1
2023-05-03T06:07:00.544Z,84.8
2023-05-03T06:08:00.527Z,84.4
2023-05-03T06:09:02.907Z,84.4
2023-05-03T06:10:00.560Z,84.8
2023-05-03T06:11:00.574Z,84.8
2023-05-03T06:12:00.552Z,84.4
2023-05-03T06:13:00.536Z,84.4
2023-05-03T06:14:00.542Z,84.4
2023-05-03T06:15:03.167Z,84.4
2023-05-03T06:16:00.541Z,84.4
2023-05-03T06:17:00.630Z,84.4
2023-05-03T06:18:00.610Z,84.1
2023-05-03T06:19:00.554Z,83.8
2023-05-03T06:20:00.557Z,84.1
2023-05-03T06:21:00.554Z,84.1
2023-05-03T06:22:00.548Z,83.5
2023-05-03T06:23:00.558Z,83.8
2023-05-03T06:24:00.550Z,83.8
2023-05-03T06:25:00.546Z,84.4
2023-05-03T06:26:00.560Z,84.4
2023-05-03T06:27:00.567Z,83.8
2023-05-03T06:28:00.555Z,83.8
2023-05-03T06:29:00.563Z,84.1
2023-05-03T06:30:00.714Z,83.8
2023-05-03T06:31:00.574Z,83.8
2023-05-03T06:32:00.552Z,83.8
2023-05-03T06:33:00.681Z,83.8
2023-05-03T06:34:00.565Z,84.2
2023-05-03T06:35:00.555Z,83.8
2023-05-03T06:36:00.570Z,83.9
2023-05-03T06:37:00.563Z,83.9
2023-05-03T06:38:00.563Z,83.9
2023-05-03T06:39:00.573Z,83.6
2023-05-03T06:40:00.716Z,83.2
2023-05-03T06:41:00.590Z,83.2
2023-05-03T06:42:00.566Z,83.6
2023-05-03T06:43:00.563Z,83.6
2023-05-03T06:44:00.588Z,83.6
2023-05-03T06:45:00.574Z,83
2023-05-03T06:46:00.687Z,83.3
2023-05-03T06:47:00.643Z,83
2023-05-03T06:48:00.945Z,82.7
2023-05-03T06:49:00.628Z,83.3
2023-05-03T06:50:00.787Z,83.3
2023-05-03T06:51:00.604Z,83
2023-05-03T06:52:00.603Z,82.7
2023-05-03T06:53:00.575Z,82.7
2023-05-03T06:54:00.578Z,82.7
2023-05-03T06:55:00.621Z,82.7
2023-05-03T06:56:00.571Z,82.7
2023-05-03T06:57:00.593Z,82.7
2023-05-03T06:58:00.585Z,83
2023-05-03T06:59:00.598Z,82.7
2023-05-03T07:00:00.780Z,82.7
2023-05-03T07:01:00.591Z,82.4
2023-05-03T07:02:00.739Z,82.1
2023-05-03T07:03:00.692Z,82.1
2023-05-03T07:04:00.759Z,81.8
2023-05-03T07:05:00.584Z,81.8
2023-05-03T07:06:00.587Z,81.5
2023-05-03T07:07:00.687Z,81.5
2023-05-03T07:08:00.608Z,81.5
2023-05-03T07:09:00.615Z,80.5
2023-05-03T07:10:00.867Z,81.5
2023-05-03T07:11:00.610Z,81.8
2023-05-03T07:12:00.595Z,81.5
2023-05-03T07:13:00.705Z,81.5
2023-05-03T07:14:00.602Z,81.5
2023-05-03T07:15:00.606Z,81.2
2023-05-03T07:16:03.370Z,81.2
2023-05-03T07:17:00.593Z,80.9
2023-05-03T07:18:00.648Z,80.6
2023-05-03T07:19:00.598Z,80.3
2023-05-03T07:20:00.740Z,79.7
2023-05-03T07:21:00.604Z,79.4
2023-05-03T07:22:00.596Z,79.1
2023-05-03T07:23:00.619Z,79.1
2023-05-03T07:24:00.603Z,79.1
2023-05-03T07:25:00.615Z,79.7
2023-05-03T07:26:00.607Z,79.7
2023-05-03T07:27:00.605Z,79.7
2023-05-03T07:28:00.652Z,79.5
2023-05-03T07:29:00.628Z,79.1
2023-05-03T07:30:00.808Z,79.8
2023-05-03T07:31:00.622Z,77.6
2023-05-03T07:32:00.625Z,77.9
2023-05-03T07:33:00.706Z,77.9
2023-05-03T07:34:00.738Z,77.9
2023-05-03T07:35:00.638Z,77.9
2023-05-03T07:36:00.628Z,77.6
2023-05-03T07:37:00.628Z,77.9
2023-05-03T07:38:00.638Z,78.2
2023-05-03T07:39:00.641Z,77.3
2023-05-03T07:40:00.871Z,77.6
2023-05-03T07:41:00.620Z,77.9
2023-05-03T07:42:00.624Z,77.9
2023-05-03T07:43:00.630Z,78
2023-05-03T07:44:00.633Z,77.3
2023-05-03T07:45:00.628Z,77.3
2023-05-03T07:46:00.665Z,77.7
2023-05-03T07:47:00.626Z,77.4
2023-05-03T07:48:00.668Z,77.1
2023-05-03T07:49:00.624Z,77.4
2023-05-03T07:50:00.964Z,76.8
2023-05-03T07:51:00.632Z,76.2
2023-05-03T07:52:00.679Z,76.3
2023-05-03T07:53:00.630Z,75.3
2023-05-03T07:54:00.638Z,74.4
2023-05-03T07:55:00.651Z,72.5
2023-05-03T07:56:00.655Z,73.2
2023-05-03T07:57:00.650Z,72.9
2023-05-03T07:58:00.634Z,71.9
2023-05-03T08:00:00.918Z,71.6
2023-05-03T08:01:00.648Z,70.3
2023-05-03T08:02:01.616Z,70.9
2023-05-03T08:03:00.829Z,71.9
2023-05-03T08:04:00.789Z,69.9
2023-05-03T08:05:00.809Z,71.8
2023-05-03T08:06:00.646Z,73.1
2023-05-03T08:07:00.645Z,72.8
2023-05-03T08:08:00.651Z,71.3
2023-05-03T08:09:00.673Z,71.9
2023-05-03T08:10:00.743Z,70.6
2023-05-03T08:11:00.674Z,69.7
2023-05-03T08:12:00.653Z,70.9
2023-05-03T08:13:00.656Z,70
2023-05-03T08:14:00.678Z,70.3
2023-05-03T08:15:00.707Z,69.6
2023-05-03T08:16:00.697Z,69.9
2023-05-03T08:17:00.667Z,71.1
2023-05-03T08:18:00.699Z,71.8
2023-05-03T08:19:00.686Z,72.4
2023-05-03T08:20:00.674Z,71.8
2023-05-03T08:21:00.664Z,71.5
2023-05-03T08:22:00.663Z,71.8
2023-05-03T08:23:00.683Z,72.8
2023-05-03T08:24:00.666Z,72.5
2023-05-03T08:25:00.660Z,71.3
2023-05-03T08:26:00.672Z,71.3
2023-05-03T08:27:00.666Z,70.7
2023-05-03T08:28:00.684Z,69.1
2023-05-03T08:29:00.674Z,67.8
2023-05-03T08:30:00.688Z,68.2
2023-05-03T08:31:00.739Z,68.2
2023-05-03T08:32:00.740Z,67.5
2023-05-03T08:33:00.738Z,68.1
2023-05-03T08:34:00.677Z,67.5
2023-05-03T08:35:00.688Z,68.4
2023-05-03T08:36:00.928Z,69.3
2023-05-03T08:37:00.958Z,70.3
2023-05-03T08:38:00.745Z,70.6
2023-05-03T08:39:00.782Z,71.2
2023-05-03T08:40:00.961Z,70.9
2023-05-03T08:41:00.752Z,70.9
2023-05-03T08:42:00.790Z,69.9
2023-05-03T08:43:00.731Z,70.8
2023-05-03T08:44:00.760Z,70.5
2023-05-03T08:45:00.698Z,71.8
2023-05-03T08:46:00.703Z,72.4
2023-05-03T08:47:00.790Z,72.4
2023-05-03T08:48:00.712Z,72.1
2023-05-03T08:49:00.696Z,72.5
2023-05-03T08:50:01.221Z,72.5
2023-05-03T08:51:00.691Z,72.5
2023-05-03T08:52:00.694Z,70.9
2023-05-03T08:53:00.697Z,71.3
2023-05-03T08:54:00.723Z,70.3
2023-05-03T08:55:00.695Z,70
2023-05-03T08:56:00.701Z,70.7
2023-05-03T08:57:00.706Z,69.8
2023-05-03T08:58:00.702Z,69.5
2023-05-03T08:59:00.710Z,69.5
2023-05-03T09:00:00.878Z,68.9
2023-05-03T09:01:00.717Z,68.6
2023-05-03T09:02:00.754Z,68.2
2023-05-03T09:03:00.870Z,69.2
2023-05-03T09:04:00.809Z,68.3
2023-05-03T09:05:00.782Z,69.2
2023-05-03T09:06:00.724Z,67.6
2023-05-03T09:07:00.715Z,65.4
2023-05-03T09:08:00.708Z,66.7
2023-05-03T09:09:00.720Z,65.8
2023-05-03T09:10:00.784Z,65.8
2023-05-03T09:11:00.715Z,67.7
2023-05-03T09:12:00.716Z,66.4
2023-05-03T09:13:00.715Z,67
2023-05-03T09:14:00.738Z,67.4
2023-05-03T09:15:00.738Z,64.2
2023-05-03T09:16:00.760Z,65.8
2023-05-03T09:17:00.792Z,67.1
2023-05-03T09:18:00.799Z,67.4
2023-05-03T09:19:00.756Z,67.1
2023-05-03T09:20:01.017Z,66.5
2023-05-03T09:21:00.752Z,65.2
2023-05-03T09:22:00.729Z,65.9
2023-05-03T09:23:00.768Z,65.9
2023-05-03T09:24:00.731Z,64
2023-05-03T09:25:00.750Z,65.2
2023-05-03T09:26:00.734Z,64.9
2023-05-03T09:27:00.735Z,66.2
2023-05-03T09:28:00.741Z,65.3
2023-05-03T09:29:00.743Z,63
2023-05-03T09:30:00.817Z,63.4
2023-05-03T09:31:00.750Z,64.6
2023-05-03T09:32:00.863Z,65.3
2023-05-03T09:33:00.796Z,64.3
2023-05-03T09:34:00.742Z,65
2023-05-03T09:35:00.809Z,63
2023-05-03T09:36:00.772Z,63.7
2023-05-03T09:37:00.742Z,62.7
2023-05-03T09:38:00.749Z,63.4
2023-05-03T09:39:00.745Z,64
2023-05-03T09:40:00.967Z,63.7
2023-05-03T09:41:00.740Z,63.1
2023-05-03T09:42:00.737Z,62.1
2023-05-03T09:43:01.229Z,62.8
2023-05-03T09:44:00.737Z,63.4
2023-05-03T09:45:00.825Z,61.5
2023-05-03T09:46:00.767Z,62.7
2023-05-03T09:47:00.802Z,62.8
2023-05-03T09:48:00.781Z,60.5
2023-05-03T09:49:00.745Z,63.4
2023-05-03T09:50:00.771Z,62.4
2023-05-03T09:51:00.772Z,64
2023-05-03T09:52:00.745Z,63.7
2023-05-03T09:53:00.752Z,61.5
2023-05-03T09:54:00.793Z,62.1
2023-05-03T09:55:01.059Z,62.1
2023-05-03T09:56:00.752Z,62.1
2023-05-03T09:57:00.793Z,62.7
2023-05-03T09:58:00.788Z,61.2
2023-05-03T09:59:00.756Z,62.7
2023-05-03T10:00:00.794Z,61.5
2023-05-03T10:01:00.810Z,62.1
2023-05-03T10:02:00.766Z,63.4
2023-05-03T10:03:00.813Z,60.5
2023-05-03T10:04:00.815Z,62.8
2023-05-03T10:05:00.891Z,60.8
2023-05-03T10:06:00.772Z,62.1
2023-05-03T10:07:00.805Z,63.4
2023-05-03T10:08:00.793Z,62.4
2023-05-03T10:09:00.785Z,61.8
2023-05-03T10:10:00.803Z,62.1
2023-05-03T10:11:00.772Z,62.8
2023-05-03T10:12:00.813Z,60.2
2023-05-03T10:13:00.786Z,60.2
2023-05-03T10:14:00.777Z,61.5
2023-05-03T10:15:00.990Z,61.2
2023-05-03T10:16:00.839Z,61.2
2023-05-03T10:17:00.787Z,62.8
2023-05-03T10:18:00.823Z,62.1
2023-05-03T10:19:00.800Z,61.5
2023-05-03T10:20:00.818Z,62.1
2023-05-03T10:21:00.783Z,62.1
2023-05-03T10:22:00.812Z,63.4
2023-05-03T10:23:00.782Z,62.1
2023-05-03T10:24:00.781Z,61.2
2023-05-03T10:25:00.988Z,60.9
2023-05-03T10:26:00.802Z,61.5
2023-05-03T10:27:00.785Z,61.9
2023-05-03T10:28:00.786Z,61.2
2023-05-03T10:29:01.422Z,61.9
2023-05-03T10:30:00.965Z,59.6
2023-05-03T10:31:00.865Z,58.7
2023-05-03T10:32:01.135Z,60.3
2023-05-03T10:33:00.816Z,60.3
2023-05-03T10:34:00.788Z,60.3
2023-05-03T10:35:00.852Z,60.3
2023-05-03T10:36:00.807Z,57.8
2023-05-03T10:37:00.792Z,60.6
2023-05-03T10:38:00.790Z,59
2023-05-03T10:39:00.793Z,59
2023-05-03T10:40:00.831Z,59.7
2023-05-03T10:41:00.792Z,59.7
2023-05-03T10:42:00.802Z,59.4
2023-05-03T10:43:00.874Z,57.5
2023-05-03T10:44:00.790Z,58.1
2023-05-03T10:45:00.898Z,58.4
2023-05-03T10:46:00.846Z,57.2
2023-05-03T10:47:00.806Z,57.2
2023-05-03T10:48:00.827Z,55.9
2023-05-03T10:49:00.806Z,58.1
2023-05-03T10:50:00.841Z,57.8
2023-05-03T10:51:00.810Z,55.6
2023-05-03T10:52:00.812Z,55.6
2023-05-03T10:53:00.804Z,58.1
2023-05-03T10:54:00.852Z,55.9
2023-05-03T10:55:01.073Z,56.5
2023-05-03T10:56:00.814Z,57.2
2023-05-03T10:57:00.836Z,55.9
2023-05-03T10:58:00.825Z,57.2
2023-05-03T10:59:00.832Z,54.6
2023-05-03T11:00:00.847Z,54.6
2023-05-03T11:01:00.837Z,55.9
2023-05-03T11:02:00.896Z,55.9
2023-05-03T11:03:00.856Z,56.3
2023-05-03T11:04:00.886Z,56.6
2023-05-03T11:05:01.041Z,55.3
2023-05-03T11:06:00.838Z,53.7
2023-05-03T11:07:00.836Z,55.9
2023-05-03T11:08:00.920Z,56.6
2023-05-03T11:09:00.836Z,54
2023-05-03T11:10:01.007Z,55
2023-05-03T11:11:00.937Z,54
2023-05-03T11:12:00.880Z,56.3
2023-05-03T11:13:00.829Z,54.7
2023-05-03T11:14:00.913Z,53.4
2023-05-03T11:15:00.997Z,53.4
2023-05-03T11:16:00.896Z,53.4
2023-05-03T11:17:00.926Z,54
2023-05-03T11:18:00.854Z,53.1
2023-05-03T11:19:00.841Z,51.5
2023-05-03T11:20:00.854Z,52.1
2023-05-03T11:21:00.841Z,55
2023-05-03T11:22:00.861Z,52.7
2023-05-03T11:23:00.833Z,54.7
2023-05-03T11:24:00.856Z,53.4
2023-05-03T11:25:01.218Z,52.8
2023-05-03T11:26:00.853Z,54.4
2023-05-03T11:27:00.845Z,53.4
2023-05-03T11:28:00.840Z,52.8
2023-05-03T11:29:00.849Z,53.7
2023-05-03T11:30:00.897Z,53.4
2023-05-03T11:31:00.849Z,53.4
2023-05-03T11:32:00.918Z,54.1
2023-05-03T11:33:00.856Z,52.8
2023-05-03T11:34:00.845Z,49
2023-05-03T11:35:00.928Z,52.1
2023-05-03T11:36:00.859Z,52.1
2023-05-03T11:37:00.848Z,52.8
2023-05-03T11:38:00.919Z,52.8
2023-05-03T11:39:00.856Z,50.5
2023-05-03T11:40:00.874Z,53.1
2023-05-03T11:41:00.852Z,51.5
2023-05-03T11:42:00.859Z,50.9
2023-05-03T11:43:00.863Z,51.8
2023-05-03T11:44:15.129Z,49.6
2023-05-03T11:45:00.892Z,49.9
2023-05-03T11:46:00.960Z,49
2023-05-03T11:47:00.940Z,49.6
2023-05-03T11:48:00.936Z,50.2
2023-05-03T11:49:00.878Z,48
2023-05-03T11:50:00.919Z,48.9
2023-05-03T11:51:00.873Z,49.6
2023-05-03T11:52:00.880Z,47
2023-05-03T11:53:00.910Z,49.6
2023-05-03T11:54:06.862Z,48.9
2023-05-03T11:55:01.251Z,50.2
2023-05-03T11:56:00.871Z,49.6
2023-05-03T11:57:01.007Z,50.5
2023-05-03T11:58:00.879Z,49.6
2023-05-03T11:59:00.869Z,48.9
2023-05-03T12:00:00.879Z,50.9
2023-05-03T12:01:00.827Z,51.5
2023-05-03T12:02:00.936Z,51.5
2023-05-03T12:03:00.937Z,49.6
2023-05-03T12:04:01.091Z,50.2
2023-05-03T12:05:01.043Z,51.5
2023-05-03T12:06:02.184Z,50.2
2023-05-03T12:07:01.120Z,49.6
2023-05-03T12:08:01.698Z,50.9
2023-05-03T12:09:00.720Z,49.6
2023-05-03T12:10:13.727Z,49
2023-05-03T12:11:02.771Z,50.3
2023-05-03T12:13:01.173Z,48.7
2023-05-03T12:14:00.687Z,49.6
2023-05-03T12:15:01.723Z,47.7
2023-05-03T12:16:10.844Z,49
2023-05-03T12:17:00.761Z,50.9
2023-05-03T12:18:01.116Z,50.9
2023-05-03T12:19:01.847Z,50.3
2023-05-03T12:20:33.143Z,51.2
2023-05-03T12:22:20.708Z,49
2023-05-03T12:23:03.513Z,50
2023-05-03T12:24:01.483Z,48.7
2023-05-03T12:25:03.660Z,49.7
2023-05-03T12:26:01.198Z,51.6
2023-05-03T12:27:02.256Z,52.9
2023-05-03T12:29:01.941Z,51.6
2023-05-03T12:30:01.809Z,51.6
2023-05-03T12:31:00.707Z,47.8
2023-05-03T12:32:00.559Z,47.8
2023-05-03T12:33:02.170Z,49.1
2023-05-03T12:34:30.913Z,47.1
2023-05-03T12:35:02.695Z,47.1
2023-05-03T12:36:03.195Z,49
2023-05-03T12:37:03.850Z,49.7
2023-05-03T12:38:02.859Z,47.7
2023-05-03T12:39:02.102Z,50
2023-05-03T12:40:27.580Z,50
2023-05-03T12:41:00.684Z,49.3
2023-05-03T12:43:00.550Z,51
2023-05-03T12:44:00.674Z,49.7
2023-05-03T12:45:04.051Z,49.3
2023-05-03T12:46:30.789Z,47.7
2023-05-03T12:47:01.297Z,49
2023-05-03T12:48:00.638Z,49
2023-05-03T12:49:00.995Z,49.3
2023-05-03T12:50:00.756Z,49.3
2023-05-03T12:51:17.838Z,48.4
2023-05-03T12:52:33.159Z,48.4
2023-05-03T12:53:02.705Z,48.7
2023-05-03T12:54:02.092Z,47.7
2023-05-03T12:55:03.659Z,49
2023-05-03T12:56:00.672Z,48.7
2023-05-03T12:58:30.340Z,50.6
2023-05-03T13:00:03.436Z,50.3
2023-05-03T13:02:41.602Z,47.7
2023-05-03T13:04:27.307Z,49
2023-05-03T13:05:01.440Z,49
2023-05-03T13:06:00.970Z,49
2023-05-03T13:07:01.213Z,49.3
2023-05-03T13:08:07.509Z,49
2023-05-03T13:09:03.272Z,49.7
2023-05-03T13:11:00.679Z,50.3
2023-05-03T13:12:00.734Z,50.4
2023-05-03T13:13:00.588Z,48.1
2023-05-03T13:14:00.550Z,46.8
2023-05-03T13:15:00.621Z,46.5
2023-05-03T13:16:00.599Z,48.4
2023-05-03T13:17:00.551Z,49.7
2023-05-03T13:18:00.594Z,49.7
2023-05-03T13:19:00.556Z,49.4
2023-05-03T13:20:00.575Z,49.7
2023-05-03T13:21:00.551Z,49.7
2023-05-03T13:22:00.568Z,48.4
2023-05-03T13:24:00.569Z,49.7
2023-05-03T13:25:00.575Z,49.1
2023-05-03T13:26:00.563Z,47.2
2023-05-03T13:27:00.579Z,49.1
2023-05-03T13:28:00.564Z,48.5
2023-05-03T13:29:00.564Z,46.5
2023-05-03T13:30:00.590Z,47.2
2023-05-03T13:31:00.575Z,45.9
2023-05-03T13:32:00.628Z,44.3
2023-05-03T13:33:00.709Z,43.6
2023-05-03T13:34:00.549Z,45.2